sensor_id;sensor_type;location;lat;lon;timestamp;pressure;altitude;pressure_sealevel;temperature;humidity
49216;BME280;45943;53.148;8.204;2023-01-27T00:01:50;102599.78;;;6.08;100.00
49216;BME280;45943;53.148;8.204;2023-01-27T00:04:16;102605.94;;;6.10;100.00
49216;BME280;45943;53.148;8.204;2023-01-27T00:06:42;102600.44;;;6.15;100.00
49216;BME280;45943;53.148;8.204;2023-01-27T00:09:08;102591.41;;;6.19;100.00
49216;BME280;45943;53.148;8.204;2023-01-27T00:11:35;102597.53;;;6.22;100.00
49216;BME280;45943;53.148;8.204;2023-01-27T00:14:20;102591.22;;;6.25;100.00
49216;BME280;45943;53.148;8.204;2023-01-27T00:16:46;102600.03;;;6.27;100.00
49216;BME280;45943;53.148;8.204;2023-01-27T00:19:11;102601.94;;;6.23;100.00
49216;BME280;45943;53.148;8.204;2023-01-27T00:21:37;102600.94;;;6.26;100.00
49216;BME280;45943;53.148;8.204;2023-01-27T00:24:22;102602.69;;;6.27;100.00
49216;BME280;45943;53.148;8.204;2023-01-27T00:27:03;102597.28;;;6.28;100.00
49216;BME280;45943;53.148;8.204;2023-01-27T00:29:34;102587.47;;;6.30;100.00
49216;BME280;45943;53.148;8.204;2023-01-27T00:32:01;102594.41;;;6.10;100.00
49216;BME280;45943;53.148;8.204;2023-01-27T00:34:46;102610.47;;;6.07;100.00
49216;BME280;45943;53.148;8.204;2023-01-27T00:37:12;102612.09;;;6.12;100.00
49216;BME280;45943;53.148;8.204;2023-01-27T00:39:39;102608.25;;;6.21;100.00
49216;BME280;45943;53.148;8.204;2023-01-27T00:42:05;102612.41;;;6.28;100.00
49216;BME280;45943;53.148;8.204;2023-01-27T00:44:31;102609.66;;;6.31;100.00
49216;BME280;45943;53.148;8.204;2023-01-27T00:46:57;102603.47;;;6.30;100.00
49216;BME280;45943;53.148;8.204;2023-01-27T00:49:24;102608.69;;;6.33;100.00
49216;BME280;45943;53.148;8.204;2023-01-27T00:51:50;102612.38;;;6.29;100.00
49216;BME280;45943;53.148;8.204;2023-01-27T00:54:16;102603.41;;;6.32;100.00
49216;BME280;45943;53.148;8.204;2023-01-27T00:56:42;102610.47;;;6.33;100.00
49216;BME280;45943;53.148;8.204;2023-01-27T00:59:09;102612.41;;;6.28;100.00
49216;BME280;45943;53.148;8.204;2023-01-27T01:01:35;102612.41;;;6.28;100.00
49216;BME280;45943;53.148;8.204;2023-01-27T01:04:02;102623.94;;;6.28;100.00
49216;BME280;45943;53.148;8.204;2023-01-27T01:06:28;102623.91;;;6.30;100.00
49216;BME280;45943;53.148;8.204;2023-01-27T01:08:55;102630.94;;;6.32;100.00
49216;BME280;45943;53.148;8.204;2023-01-27T01:11:22;102638.06;;;6.32;100.00
49216;BME280;45943;53.148;8.204;2023-01-27T01:13:48;102639.84;;;6.31;100.00
49216;BME280;45943;53.148;8.204;2023-01-27T01:16:18;102635.34;;;6.33;100.00
49216;BME280;45943;53.148;8.204;2023-01-27T01:18:47;102637.13;;;6.33;100.00
49216;BME280;45943;53.148;8.204;2023-01-27T01:21:13;102635.22;;;6.37;100.00
49216;BME280;45943;53.148;8.204;2023-01-27T01:23:40;102635.38;;;6.32;100.00
49216;BME280;45943;53.148;8.204;2023-01-27T01:26:08;102643.44;;;6.30;100.00
49216;BME280;45943;53.148;8.204;2023-01-27T01:28:36;102638.97;;;6.31;100.00
49216;BME280;45943;53.148;8.204;2023-01-27T01:31:05;102649.84;;;6.25;100.00
49216;BME280;45943;53.148;8.204;2023-01-27T01:33:32;102653.22;;;6.30;100.00
49216;BME280;45943;53.148;8.204;2023-01-27T01:36:02;102649.59;;;6.32;100.00
49216;BME280;45943;53.148;8.204;2023-01-27T01:38:32;102644.94;;;6.39;100.00
49216;BME280;45943;53.148;8.204;2023-01-27T01:40:58;102649.28;;;6.42;100.00
49216;BME280;45943;53.148;8.204;2023-01-27T01:43:24;102647.44;;;6.44;100.00
49216;BME280;45943;53.148;8.204;2023-01-27T01:51:13;102648.28;;;6.44;100.00
49216;BME280;45943;53.148;8.204;2023-01-27T01:53:50;102643.81;;;6.45;100.00
49216;BME280;45943;53.148;8.204;2023-01-27T01:56:20;102643.81;;;6.45;100.00
49216;BME280;45943;53.148;8.204;2023-01-27T01:58:54;102644.63;;;6.47;100.00
49216;BME280;45943;53.148;8.204;2023-01-27T02:01:26;102647.25;;;6.48;100.00
49216;BME280;45943;53.148;8.204;2023-01-27T02:03:53;102650.03;;;6.45;100.00
49216;BME280;45943;53.148;8.204;2023-01-27T02:06:23;102649.09;;;6.46;100.00
49216;BME280;45943;53.148;8.204;2023-01-27T02:08:50;102642.84;;;6.47;100.00
49216;BME280;45943;53.148;8.204;2023-01-27T02:11:16;102644.59;;;6.48;100.00
49216;BME280;45943;53.148;8.204;2023-01-27T02:13:43;102639.16;;;6.51;100.00
49216;BME280;45943;53.148;8.204;2023-01-27T02:16:10;102646.34;;;6.49;100.00
49216;BME280;45943;53.148;8.204;2023-01-27T02:18:37;102645.44;;;6.50;100.00
49216;BME280;45943;53.148;8.204;2023-01-27T02:21:05;102646.25;;;6.52;100.00
49216;BME280;45943;53.148;8.204;2023-01-27T02:23:48;102652.56;;;6.50;100.00
49216;BME280;45943;53.148;8.204;2023-01-27T02:26:31;102652.56;;;6.50;100.00
49216;BME280;45943;53.148;8.204;2023-01-27T02:29:07;102654.38;;;6.48;100.00
49216;BME280;45943;53.148;8.204;2023-01-27T02:31:35;102663.25;;;6.48;100.00
49216;BME280;45943;53.148;8.204;2023-01-27T02:34:03;102662.38;;;6.48;100.00
49216;BME280;45943;53.148;8.204;2023-01-27T02:36:35;102658.91;;;6.46;100.00
49216;BME280;45943;53.148;8.204;2023-01-27T02:39:07;102665.22;;;6.43;100.00
49216;BME280;45943;53.148;8.204;2023-01-27T02:41:45;102660.81;;;6.42;100.00
49216;BME280;45943;53.148;8.204;2023-01-27T02:44:16;102663.66;;;6.36;100.00
49216;BME280;45943;53.148;8.204;2023-01-27T02:46:42;102663.66;;;6.36;100.00
49216;BME280;45943;53.148;8.204;2023-01-27T02:49:08;102662.75;;;6.37;100.00
49216;BME280;45943;53.148;8.204;2023-01-27T02:51:34;102659.22;;;6.37;100.00
49216;BME280;45943;53.148;8.204;2023-01-27T02:54:00;102669.16;;;6.31;100.00
49216;BME280;45943;53.148;8.204;2023-01-27T02:56:26;102671.97;;;6.27;100.00
49216;BME280;45943;53.148;8.204;2023-01-27T02:58:52;102676.53;;;6.23;100.00
49216;BME280;45943;53.148;8.204;2023-01-27T03:01:18;102667.56;;;6.26;100.00
49216;BME280;45943;53.148;8.204;2023-01-27T03:03:44;102678.13;;;6.29;100.00
49216;BME280;45943;53.148;8.204;2023-01-27T03:06:12;102680.75;;;6.30;100.00
49216;BME280;45943;53.148;8.204;2023-01-27T03:08:39;102681.75;;;6.26;100.00
49216;BME280;45943;53.148;8.204;2023-01-27T03:11:05;102680.06;;;6.24;100.00
49216;BME280;45943;53.148;8.204;2023-01-27T03:13:32;102673.81;;;6.25;100.00
49216;BME280;45943;53.148;8.204;2023-01-27T03:15:58;102675.56;;;6.26;100.00
49216;BME280;45943;53.148;8.204;2023-01-27T03:18:43;102687.19;;;6.23;100.00
49216;BME280;45943;53.148;8.204;2023-01-27T03:21:14;102688.19;;;6.21;100.00
49216;BME280;45943;53.148;8.204;2023-01-27T03:23:41;102693.47;;;6.22;100.00
49216;BME280;45943;53.148;8.204;2023-01-27T03:26:10;102697.22;;;6.15;100.00
49216;BME280;45943;53.148;8.204;2023-01-27T03:28:36;102689.28;;;6.14;100.00
49216;BME280;45943;53.148;8.204;2023-01-27T03:31:06;102688.53;;;6.10;100.00
49216;BME280;45943;53.148;8.204;2023-01-27T03:33:44;102683.22;;;6.09;100.00
49216;BME280;45943;53.148;8.204;2023-01-27T03:36:12;102697.47;;;6.08;100.00
49216;BME280;45943;53.148;8.204;2023-01-27T03:38:57;102690.56;;;6.02;100.00
49216;BME280;45943;53.148;8.204;2023-01-27T03:41:41;102690.63;;;5.99;100.00
49216;BME280;45943;53.148;8.204;2023-01-27T03:44:26;102698.75;;;5.96;100.00
49216;BME280;45943;53.148;8.204;2023-01-27T03:47:10;102706.00;;;5.89;100.00
49216;BME280;45943;53.148;8.204;2023-01-27T03:49:36;102702.47;;;5.90;100.00
49216;BME280;45943;53.148;8.204;2023-01-27T03:52:02;102706.88;;;5.90;100.00
49216;BME280;45943;53.148;8.204;2023-01-27T03:54:28;102718.72;;;5.80;100.00
49216;BME280;45943;53.148;8.204;2023-01-27T03:56:54;102712.53;;;5.79;100.00
49216;BME280;45943;53.148;8.204;2023-01-27T03:59:20;102717.00;;;5.79;100.00
49216;BME280;45943;53.148;8.204;2023-01-27T04:01:46;102713.63;;;5.73;100.00
49216;BME280;45943;53.148;8.204;2023-01-27T04:04:12;102716.44;;;5.67;100.00
49216;BME280;45943;53.148;8.204;2023-01-27T04:06:56;102717.25;;;5.69;100.00
49216;BME280;45943;53.148;8.204;2023-01-27T04:09:31;102717.53;;;5.60;100.00
49216;BME280;45943;53.148;8.204;2023-01-27T04:11:59;102710.41;;;5.62;100.00
49216;BME280;45943;53.148;8.204;2023-01-27T04:16:55;102720.25;;;5.59;100.00
49216;BME280;45943;53.148;8.204;2023-01-27T04:19:24;102718.50;;;5.58;100.00
49216;BME280;45943;53.148;8.204;2023-01-27T04:21:50;102722.03;;;5.58;100.00
49216;BME280;45943;53.148;8.204;2023-01-27T04:24:17;102718.47;;;5.59;100.00
49216;BME280;45943;53.148;8.204;2023-01-27T04:27:00;102726.50;;;5.58;100.00
49216;BME280;45943;53.148;8.204;2023-01-27T04:29:29;102718.50;;;5.58;100.00
49216;BME280;45943;53.148;8.204;2023-01-27T04:31:57;102731.88;;;5.56;100.00
49216;BME280;45943;53.148;8.204;2023-01-27T04:34:24;102724.91;;;5.52;100.00
49216;BME280;45943;53.148;8.204;2023-01-27T04:36:52;102732.19;;;5.45;100.00
49216;BME280;45943;53.148;8.204;2023-01-27T04:39:18;102735.06;;;5.38;100.00
49216;BME280;45943;53.148;8.204;2023-01-27T04:41:45;102734.25;;;5.36;100.00
49216;BME280;45943;53.148;8.204;2023-01-27T04:44:11;102739.41;;;5.40;100.00
49216;BME280;45943;53.148;8.204;2023-01-27T04:46:38;102736.75;;;5.40;100.00
49216;BME280;45943;53.148;8.204;2023-01-27T04:49:04;102736.63;;;5.45;100.00
49216;BME280;45943;53.148;8.204;2023-01-27T04:51:31;102724.16;;;5.47;100.00
49216;BME280;45943;53.148;8.204;2023-01-27T04:53:57;102730.22;;;5.52;100.00
49216;BME280;45943;53.148;8.204;2023-01-27T04:56:29;102740.72;;;5.57;100.00
49216;BME280;45943;53.148;8.204;2023-01-27T04:58:58;102739.03;;;5.54;100.00
49216;BME280;45943;53.148;8.204;2023-01-27T05:01:25;102732.78;;;5.55;100.00
49216;BME280;45943;53.148;8.204;2023-01-27T05:03:51;102735.47;;;5.55;100.00
49216;BME280;45943;53.148;8.204;2023-01-27T05:06:17;102731.00;;;5.56;100.00
49216;BME280;45943;53.148;8.204;2023-01-27T05:08:43;102744.16;;;5.60;100.00
49216;BME280;45943;53.148;8.204;2023-01-27T05:11:09;102735.28;;;5.61;100.00
49216;BME280;45943;53.148;8.204;2023-01-27T05:13:36;102736.97;;;5.64;100.00
49216;BME280;45943;53.148;8.204;2023-01-27T05:16:21;102751.28;;;5.60;100.00
49216;BME280;45943;53.148;8.204;2023-01-27T05:18:48;102743.50;;;5.54;100.00
49216;BME280;45943;53.148;8.204;2023-01-27T05:21:17;102750.50;;;5.56;100.00
49216;BME280;45943;53.148;8.204;2023-01-27T05:23:44;102744.25;;;5.57;100.00
49216;BME280;45943;53.148;8.204;2023-01-27T05:26:15;102762.06;;;5.55;100.00
49216;BME280;45943;53.148;8.204;2023-01-27T05:28:51;102762.91;;;5.57;100.00
49216;BME280;45943;53.148;8.204;2023-01-27T05:31:19;102756.69;;;5.57;100.00
49216;BME280;45943;53.148;8.204;2023-01-27T05:33:48;102770.00;;;5.57;100.00
49216;BME280;45943;53.148;8.204;2023-01-27T05:36:17;102776.31;;;5.54;100.00
49216;BME280;45943;53.148;8.204;2023-01-27T05:38:44;102782.66;;;5.48;100.00
49216;BME280;45943;53.148;8.204;2023-01-27T05:41:11;102774.59;;;5.52;100.00
49216;BME280;45943;53.148;8.204;2023-01-27T05:43:39;102780.59;;;5.58;100.00
49216;BME280;45943;53.148;8.204;2023-01-27T05:46:07;102782.41;;;5.58;100.00
49216;BME280;45943;53.148;8.204;2023-01-27T05:48:39;102791.22;;;5.60;100.00
49216;BME280;45943;53.148;8.204;2023-01-27T05:51:07;102801.00;;;5.59;100.00
49216;BME280;45943;53.148;8.204;2023-01-27T05:53:34;102794.63;;;5.65;100.00
49216;BME280;45943;53.148;8.204;2023-01-27T05:56:01;102789.19;;;5.68;100.00
49216;BME280;45943;53.148;8.204;2023-01-27T05:58:28;102779.38;;;5.70;100.00
49216;BME280;45943;53.148;8.204;2023-01-27T06:00:54;102782.03;;;5.71;100.00
49216;BME280;45943;53.148;8.204;2023-01-27T06:03:20;102780.41;;;5.66;100.00
49216;BME280;45943;53.148;8.204;2023-01-27T06:05:54;102783.06;;;5.66;100.00
49216;BME280;45943;53.148;8.204;2023-01-27T06:08:22;102781.16;;;5.69;100.00
49216;BME280;45943;53.148;8.204;2023-01-27T06:10:49;102777.63;;;5.70;100.00
49216;BME280;45943;53.148;8.204;2023-01-27T06:13:16;102777.63;;;5.69;100.00
49216;BME280;45943;53.148;8.204;2023-01-27T06:15:42;102788.22;;;5.72;100.00
49216;BME280;45943;53.148;8.204;2023-01-27T06:18:10;102782.91;;;5.72;100.00
49216;BME280;45943;53.148;8.204;2023-01-27T06:20:36;102789.97;;;5.73;100.00
49216;BME280;45943;53.148;8.204;2023-01-27T06:23:03;102797.84;;;5.76;100.00
49216;BME280;45943;53.148;8.204;2023-01-27T06:25:30;102804.09;;;5.75;100.00
49216;BME280;45943;53.148;8.204;2023-01-27T06:27:56;102799.75;;;5.72;100.00
49216;BME280;45943;53.148;8.204;2023-01-27T06:30:22;102800.69;;;5.70;100.00
49216;BME280;45943;53.148;8.204;2023-01-27T06:32:49;102798.16;;;5.65;100.00
49216;BME280;45943;53.148;8.204;2023-01-27T06:35:15;102813.25;;;5.65;100.00
49216;BME280;45943;53.148;8.204;2023-01-27T06:37:41;102815.00;;;5.66;100.00
49216;BME280;45943;53.148;8.204;2023-01-27T06:40:07;102812.38;;;5.64;100.00
49216;BME280;45943;53.148;8.204;2023-01-27T06:42:33;102811.47;;;5.65;100.00
49216;BME280;45943;53.148;8.204;2023-01-27T06:45:00;102810.72;;;5.60;100.00
49216;BME280;45943;53.148;8.204;2023-01-27T06:47:26;102818.75;;;5.59;100.00
49216;BME280;45943;53.148;8.204;2023-01-27T06:49:52;102824.03;;;5.60;100.00
49216;BME280;45943;53.148;8.204;2023-01-27T06:52:18;102817.88;;;5.58;100.00
49216;BME280;45943;53.148;8.204;2023-01-27T06:54:44;102824.06;;;5.59;100.00
49216;BME280;45943;53.148;8.204;2023-01-27T06:57:10;102830.25;;;5.61;100.00
49216;BME280;45943;53.148;8.204;2023-01-27T06:59:36;102833.63;;;5.66;100.00
49216;BME280;45943;53.148;8.204;2023-01-27T07:02:02;102841.53;;;5.69;100.00
49216;BME280;45943;53.148;8.204;2023-01-27T07:04:28;102850.38;;;5.69;100.00
49216;BME280;45943;53.148;8.204;2023-01-27T07:06:54;102860.16;;;5.69;100.00
49216;BME280;45943;53.148;8.204;2023-01-27T07:09:20;102860.88;;;5.75;100.00
49216;BME280;45943;53.148;8.204;2023-01-27T07:11:46;102859.03;;;5.78;100.00
49216;BME280;45943;53.148;8.204;2023-01-27T07:14:12;102863.50;;;5.77;100.00
49216;BME280;45943;53.148;8.204;2023-01-27T07:16:38;102864.41;;;5.76;100.00
49216;BME280;45943;53.148;8.204;2023-01-27T07:19:04;102853.88;;;5.73;100.00
49216;BME280;45943;53.148;8.204;2023-01-27T07:21:30;102864.50;;;5.73;100.00
49216;BME280;45943;53.148;8.204;2023-01-27T07:23:56;102873.47;;;5.70;100.00
49216;BME280;45943;53.148;8.204;2023-01-27T07:26:22;102873.53;;;5.67;100.00
49216;BME280;45943;53.148;8.204;2023-01-27T07:28:48;102877.94;;;5.68;100.00
49216;BME280;45943;53.148;8.204;2023-01-27T07:31:14;102873.59;;;5.66;100.00
49216;BME280;45943;53.148;8.204;2023-01-27T07:33:40;102872.50;;;5.73;100.00
49216;BME280;45943;53.148;8.204;2023-01-27T07:36:06;102883.88;;;5.78;100.00
49216;BME280;45943;53.148;8.204;2023-01-27T07:38:32;102890.00;;;5.82;100.00
49216;BME280;45943;53.148;8.204;2023-01-27T07:41:02;102891.00;;;5.78;100.00
49216;BME280;45943;53.148;8.204;2023-01-27T07:43:29;102892.94;;;5.72;100.00
49216;BME280;45943;53.148;8.204;2023-01-27T07:45:55;102887.59;;;5.72;100.00
49216;BME280;45943;53.148;8.204;2023-01-27T07:48:22;102896.47;;;5.73;100.00
49216;BME280;45943;53.148;8.204;2023-01-27T07:50:48;102899.28;;;5.67;100.00
49216;BME280;45943;53.148;8.204;2023-01-27T07:53:14;102900.09;;;5.69;100.00
49216;BME280;45943;53.148;8.204;2023-01-27T07:55:40;102892.97;;;5.71;100.00
49216;BME280;45943;53.148;8.204;2023-01-27T07:58:06;102902.72;;;5.72;100.00
49216;BME280;45943;53.148;8.204;2023-01-27T08:00:32;102901.94;;;5.67;100.00
49216;BME280;45943;53.148;8.204;2023-01-27T08:02:59;102900.19;;;5.66;100.00
49216;BME280;45943;53.148;8.204;2023-01-27T08:05:26;102898.31;;;5.69;100.00
49216;BME280;45943;53.148;8.204;2023-01-27T08:07:54;102901.78;;;5.73;100.00
49216;BME280;45943;53.148;8.204;2023-01-27T08:10:21;102896.53;;;5.70;100.00
49216;BME280;45943;53.148;8.204;2023-01-27T08:12:47;102898.31;;;5.69;100.00
49216;BME280;45943;53.148;8.204;2023-01-27T08:15:13;102906.34;;;5.68;100.00
49216;BME280;45943;53.148;8.204;2023-01-27T08:17:39;102908.09;;;5.70;100.00
49216;BME280;45943;53.148;8.204;2023-01-27T08:20:05;102903.00;;;5.61;100.00
49216;BME280;45943;53.148;8.204;2023-01-27T08:22:32;102905.63;;;5.63;100.00
49216;BME280;45943;53.148;8.204;2023-01-27T08:24:58;102908.97;;;5.71;100.00
49216;BME280;45943;53.148;8.204;2023-01-27T08:27:24;102912.31;;;5.78;100.00
49216;BME280;45943;53.148;8.204;2023-01-27T08:29:50;102905.28;;;5.75;100.00
49216;BME280;45943;53.148;8.204;2023-01-27T08:32:16;102905.47;;;5.67;100.00
49216;BME280;45943;53.148;8.204;2023-01-27T08:34:42;102908.09;;;5.69;100.00
49216;BME280;45943;53.148;8.204;2023-01-27T08:37:08;102921.47;;;5.67;100.00
49216;BME280;45943;53.148;8.204;2023-01-27T08:39:34;102921.50;;;5.66;100.00
49216;BME280;45943;53.148;8.204;2023-01-27T08:42:00;102926.63;;;5.73;100.00
49216;BME280;45943;53.148;8.204;2023-01-27T08:44:26;102919.47;;;5.75;100.00
49216;BME280;45943;53.148;8.204;2023-01-27T08:46:54;102926.44;;;5.81;100.00
49216;BME280;45943;53.148;8.204;2023-01-27T08:49:20;102927.03;;;5.92;100.00
49216;BME280;45943;53.148;8.204;2023-01-27T08:51:46;102924.31;;;5.94;100.00
49216;BME280;45943;53.148;8.204;2023-01-27T08:54:12;102927.81;;;5.96;100.00
49216;BME280;45943;53.148;8.204;2023-01-27T08:56:38;102934.84;;;5.98;100.00
49216;BME280;45943;53.148;8.204;2023-01-27T08:59:04;102938.41;;;5.97;100.00
49216;BME280;45943;53.148;8.204;2023-01-27T09:01:30;102935.09;;;5.88;100.00
49216;BME280;45943;53.148;8.204;2023-01-27T09:03:56;102940.31;;;5.94;100.00
49216;BME280;45943;53.148;8.204;2023-01-27T09:06:22;102945.53;;;5.97;100.00
49216;BME280;45943;53.148;8.204;2023-01-27T09:08:49;102945.38;;;6.03;100.00
49216;BME280;45943;53.148;8.204;2023-01-27T09:11:38;102952.47;;;6.04;100.00
49216;BME280;45943;53.148;8.204;2023-01-27T09:14:06;102950.81;;;6.00;100.00
49216;BME280;45943;53.148;8.204;2023-01-27T09:16:32;102947.94;;;6.06;100.00
49216;BME280;45943;53.148;8.204;2023-01-27T09:18:58;102942.88;;;5.97;100.00
49216;BME280;45943;53.148;8.204;2023-01-27T09:21:24;102954.25;;;6.03;100.00
49216;BME280;45943;53.148;8.204;2023-01-27T09:23:50;102955.84;;;6.09;100.00
49216;BME280;45943;53.148;8.204;2023-01-27T09:26:16;102953.13;;;6.12;100.00
49216;BME280;45943;53.148;8.204;2023-01-27T09:28:42;102962.16;;;6.07;100.00
49216;BME280;45943;53.148;8.204;2023-01-27T09:31:08;102959.69;;;5.99;100.00
49216;BME280;45943;53.148;8.204;2023-01-27T09:33:35;102964.91;;;6.03;100.00
49216;BME280;45943;53.148;8.204;2023-01-27T09:36:04;102956.75;;;6.10;100.00
49216;BME280;45943;53.148;8.204;2023-01-27T09:38:35;102960.28;;;6.10;100.00
49216;BME280;45943;53.148;8.204;2023-01-27T09:41:10;102962.94;;;6.10;100.00
49216;BME280;45943;53.148;8.204;2023-01-27T09:44:06;102955.94;;;6.06;100.00
49216;BME280;45943;53.148;8.204;2023-01-27T09:49:39;102966.56;;;6.08;100.00
49216;BME280;45943;53.148;8.204;2023-01-27T09:55:03;102966.81;;;5.98;100.00
49216;BME280;45943;53.148;8.204;2023-01-27T10:00:35;102963.06;;;6.06;100.00
49216;BME280;45943;53.148;8.204;2023-01-27T10:11:18;102965.31;;;5.87;100.00
49216;BME280;45943;53.148;8.204;2023-01-27T10:14:22;102962.69;;;5.85;100.00
49216;BME280;45943;53.148;8.204;2023-01-27T10:17:25;102958.59;;;5.73;100.00
49216;BME280;45943;53.148;8.204;2023-01-27T10:20:12;102961.97;;;5.79;100.00
49216;BME280;45943;53.148;8.204;2023-01-27T10:28:21;102963.66;;;5.83;100.00
49216;BME280;45943;53.148;8.204;2023-01-27T10:34:07;102954.00;;;5.79;100.00
49216;BME280;45943;53.148;8.204;2023-01-27T10:36:21;102961.06;;;5.80;100.00
49216;BME280;45943;53.148;8.204;2023-01-27T10:38:56;102966.34;;;5.83;100.00
49216;BME280;45943;53.148;8.204;2023-01-27T10:42:19;102966.28;;;5.84;100.00
49216;BME280;45943;53.148;8.204;2023-01-27T10:50:18;102965.88;;;6.01;100.00
49216;BME280;45943;53.148;8.204;2023-01-27T10:52:54;102961.53;;;5.97;100.00
49216;BME280;45943;53.148;8.204;2023-01-27T10:55:36;102967.03;;;5.91;100.00
49216;BME280;45943;53.148;8.204;2023-01-27T10:58:22;102960.91;;;5.86;100.00
49216;BME280;45943;53.148;8.204;2023-01-27T11:01:14;102959.03;;;5.91;100.00
49216;BME280;45943;53.148;8.204;2023-01-27T11:03:46;102962.44;;;5.96;100.00
49216;BME280;45943;53.148;8.204;2023-01-27T11:06:21;102971.19;;;6.01;100.00
49216;BME280;45943;53.148;8.204;2023-01-27T11:08:54;102960.78;;;5.92;100.00
49216;BME280;45943;53.148;8.204;2023-01-27T11:11:29;102960.56;;;5.99;100.00
49216;BME280;45943;53.148;8.204;2023-01-27T11:16:37;102963.13;;;6.04;100.00
49216;BME280;45943;53.148;8.204;2023-01-27T11:21:59;102955.22;;;5.99;100.00
49216;BME280;45943;53.148;8.204;2023-01-27T11:24:32;102956.09;;;6.01;100.00
49216;BME280;45943;53.148;8.204;2023-01-27T11:27:12;102961.06;;;5.81;100.00
49216;BME280;45943;53.148;8.204;2023-01-27T11:29:53;102960.84;;;5.90;100.00
49216;BME280;45943;53.148;8.204;2023-01-27T11:32:35;102955.22;;;6.01;100.00
49216;BME280;45943;53.148;8.204;2023-01-27T11:35:08;102955.03;;;6.07;100.00
49216;BME280;45943;53.148;8.204;2023-01-27T11:40:14;102956.59;;;6.14;100.00
49216;BME280;45943;53.148;8.204;2023-01-27T11:42:41;102957.63;;;6.10;100.00
49216;BME280;45943;53.148;8.204;2023-01-27T11:45:15;102959.44;;;6.08;100.00
49216;BME280;45943;53.148;8.204;2023-01-27T11:47:43;102949.94;;;5.98;100.00
49216;BME280;45943;53.148;8.204;2023-01-27T11:50:14;102948.81;;;6.07;100.00
49216;BME280;45943;53.148;8.204;2023-01-27T11:52:43;102946.06;;;6.11;100.00
49216;BME280;45943;53.148;8.204;2023-01-27T11:57:43;102944.25;;;6.12;100.00
49216;BME280;45943;53.148;8.204;2023-01-27T12:03:05;102929.81;;;6.19;100.00
49216;BME280;45943;53.148;8.204;2023-01-27T12:05:43;102940.63;;;6.14;100.00
49216;BME280;45943;53.148;8.204;2023-01-27T12:08:39;102936.56;;;6.01;100.00
49216;BME280;45943;53.148;8.204;2023-01-27T12:13:57;102932.53;;;5.85;100.00
49216;BME280;45943;53.148;8.204;2023-01-27T12:16:45;102931.34;;;5.96;100.00
49216;BME280;45943;53.148;8.204;2023-01-27T12:19:16;102933.03;;;5.99;100.00
49216;BME280;45943;53.148;8.204;2023-01-27T12:21:50;102932.13;;;6.01;100.00
49216;BME280;45943;53.148;8.204;2023-01-27T12:24:23;102922.03;;;5.79;100.00
49216;BME280;45943;53.148;8.204;2023-01-27T12:26:53;102930.06;;;5.77;100.00
49216;BME280;45943;53.148;8.204;2023-01-27T12:29:23;102928.03;;;5.87;100.00
49216;BME280;45943;53.148;8.204;2023-01-27T12:31:53;102925.19;;;5.94;100.00
49216;BME280;45943;53.148;8.204;2023-01-27T12:36:50;102922.53;;;5.94;100.00
49216;BME280;45943;53.148;8.204;2023-01-27T12:42:45;102927.22;;;5.85;100.00
49216;BME280;45943;53.148;8.204;2023-01-27T12:45:25;102924.78;;;5.75;100.00
49216;BME280;45943;53.148;8.204;2023-01-27T12:47:58;102923.56;;;5.87;100.00
49216;BME280;45943;53.148;8.204;2023-01-27T12:50:32;102926.16;;;5.92;100.00
49216;BME280;45943;53.148;8.204;2023-01-27T12:56:17;102920.34;;;6.09;100.00
49216;BME280;45943;53.148;8.204;2023-01-27T13:03:51;102914.84;;;6.15;100.00
49216;BME280;45943;53.148;8.204;2023-01-27T13:06:26;102912.19;;;6.15;100.00
49216;BME280;45943;53.148;8.204;2023-01-27T13:09:01;102927.81;;;5.96;100.00
49216;BME280;45943;53.148;8.204;2023-01-27T13:11:32;102922.28;;;6.03;100.00
49216;BME280;45943;53.148;8.204;2023-01-27T13:14:06;102918.53;;;6.09;100.00
49216;BME280;45943;53.148;8.204;2023-01-27T13:16:32;102917.69;;;6.09;100.00
49216;BME280;45943;53.148;8.204;2023-01-27T13:18:59;102929.91;;;6.16;100.00
49216;BME280;45943;53.148;8.204;2023-01-27T13:21:31;102925.41;;;6.18;100.00
49216;BME280;45943;53.148;8.204;2023-01-27T13:24:02;102917.63;;;6.12;100.00
49216;BME280;45943;53.148;8.204;2023-01-27T13:26:35;102923.75;;;6.14;100.00
49216;BME280;45943;53.148;8.204;2023-01-27T13:31:56;102931.00;;;6.09;100.00
49216;BME280;45943;53.148;8.204;2023-01-27T13:34:29;102910.75;;;6.03;100.00
49216;BME280;45943;53.148;8.204;2023-01-27T13:39:42;102928.88;;;5.90;100.00
49216;BME280;45943;53.148;8.204;2023-01-27T13:42:19;102925.09;;;5.97;100.00
49216;BME280;45943;53.148;8.204;2023-01-27T13:44:55;102929.50;;;6.00;100.00
49216;BME280;45943;53.148;8.204;2023-01-27T13:47:24;102933.03;;;5.99;100.00
49216;BME280;45943;53.148;8.204;2023-01-27T13:49:58;102934.88;;;5.97;100.00
49216;BME280;45943;53.148;8.204;2023-01-27T13:52:33;102928.59;;;5.99;100.00
49216;BME280;45943;53.148;8.204;2023-01-27T13:55:00;102931.25;;;5.99;100.00
49216;BME280;45943;53.148;8.204;2023-01-27T13:57:47;102931.03;;;6.07;100.00
49216;BME280;45943;53.148;8.204;2023-01-27T14:00:44;102928.31;;;6.10;100.00
49216;BME280;45943;53.148;8.204;2023-01-27T14:03:41;102929.34;;;6.04;100.00
49216;BME280;45943;53.148;8.204;2023-01-27T14:06:29;102927.66;;;6.02;100.00
49216;BME280;45943;53.148;8.204;2023-01-27T14:09:11;102927.59;;;6.03;100.00
49216;BME280;45943;53.148;8.204;2023-01-27T14:19:33;102922.84;;;6.15;100.00
49216;BME280;45943;53.148;8.204;2023-01-27T14:27:54;102922.56;;;6.24;100.00
49216;BME280;45943;53.148;8.204;2023-01-27T14:30:30;102932.47;;;6.20;100.00
49216;BME280;45943;53.148;8.204;2023-01-27T14:33:30;102921.81;;;6.20;100.00
49216;BME280;45943;53.148;8.204;2023-01-27T14:36:17;102923.41;;;6.26;100.00